Time;durP1;ratioP1;P1;durP2;ratioP2;P2;SDS_P1;SDS_P2;PMS_P1;PMS_P2;Temp;Humidity;BMP_temperature;BMP_pressure;BME280_temperature;BME280_humidity;BME280_pressure;Samples;Min_cycle;Max_cycle;Signal;HPM_P1;HPM_P2
2021/09/22 00:00:11;;;;;;;2.70;2.60;;;16.40;99.90;;;16.86;72.43;102888.41;4955573;29;20122;-73
2021/09/22 00:02:40;;;;;;;2.50;2.40;;;16.50;99.90;;;16.95;72.11;102889.31;4955272;29;20503;-73
2021/09/22 00:05:11;;;;;;;2.83;2.72;;;16.50;99.90;;;16.85;71.90;102875.91;4955371;29;20125;-73
2021/09/22 00:07:41;;;;;;;2.72;2.63;;;16.50;99.90;;;16.85;72.00;102890.19;4954168;29;20051;-73
2021/09/22 00:10:12;;;;;;;3.45;3.25;;;16.50;99.90;;;16.69;72.12;102874.97;4955130;29;20497;-73
2021/09/22 00:12:41;;;;;;;2.40;2.30;;;16.40;99.90;;;16.72;72.04;102885.69;4955040;29;20134;-73
2021/09/22 00:15:13;;;;;;;2.83;2.72;;;16.30;99.90;;;16.72;72.20;102888.38;4954812;29;20125;-73
2021/09/22 00:17:42;;;;;;;2.53;2.42;;;16.30;99.90;;;16.67;72.53;102892.78;4954759;29;20063;-73
2021/09/22 00:20:13;;;;;;;2.70;2.60;;;16.30;99.90;;;16.62;72.74;102889.22;4953863;29;20051;-73
2021/09/22 00:22:42;;;;;;;2.65;2.55;;;16.20;99.90;;;16.63;72.92;102892.78;4937930;29;20134;-73
2021/09/22 00:25:12;;;;;;;2.67;2.58;;;16.20;99.90;;;16.62;73.00;102891.00;4955354;29;20134;-73
2021/09/22 00:27:41;;;;;;;2.45;2.35;;;16.20;99.90;;;16.57;73.19;102882.97;4955427;29;20039;-73
2021/09/22 00:30:13;;;;;;;2.40;2.30;;;16.10;99.90;;;16.57;73.59;102880.28;4954757;29;20050;-73
2021/09/22 00:32:45;;;;;;;3.03;2.92;;;16.10;99.90;;;16.54;73.40;102869.59;4954568;28;20105;-72
2021/09/22 00:35:14;;;;;;;2.78;2.67;;;16.10;99.90;;;16.58;73.82;102881.19;4954905;29;20051;-73
2021/09/22 00:37:43;;;;;;;2.83;2.72;;;16.10;99.90;;;16.56;73.79;102882.97;4954604;29;20043;-74
2021/09/22 00:40:13;;;;;;;2.42;2.33;;;16.10;99.90;;;16.52;73.90;102882.06;4953475;29;20083;-73
2021/09/22 00:42:42;;;;;;;2.85;2.75;;;16.10;99.90;;;16.43;74.19;102874.00;4954830;29;20055;-73
2021/09/22 00:45:14;;;;;;;2.95;2.85;;;16.10;99.90;;;16.40;74.26;102879.31;4954400;29;20501;-73
2021/09/22 00:47:42;;;;;;;2.58;2.47;;;16.00;99.90;;;16.32;74.12;102883.72;4937155;29;20051;-73
2021/09/22 00:50:20;;;;;;;3.00;2.90;;;15.90;99.90;;;16.26;74.37;102883.69;4953373;29;20051;-73
2021/09/22 00:52:49;;;;;;;2.75;2.65;;;15.80;99.90;;;15.61;74.03;102767.69;4954409;29;20047;-73
2021/09/22 00:55:17;;;;;;;2.65;2.55;;;15.80;99.90;;;16.23;73.94;102873.91;4954382;29;20134;-74
2021/09/22 00:57:51;;;;;;;2.85;2.75;;;15.80;99.90;;;16.22;74.52;102879.22;4953185;29;20052;-74
2021/09/22 01:00:25;;;;;;;2.90;2.80;;;15.80;99.90;;;16.08;74.69;102851.56;4938395;29;20126;-74
2021/09/22 01:02:54;;;;;;;2.67;2.58;;;15.80;99.90;;;16.26;75.51;102881.00;4955836;29;20053;-74
2021/09/22 01:05:27;;;;;;;2.67;2.58;;;15.80;99.90;;;16.11;74.84;102847.13;4955464;29;20121;-74
2021/09/22 01:07:55;;;;;;;2.47;2.38;;;15.90;99.90;;;16.33;74.53;102880.19;4938225;29;20493;-74
2021/09/22 01:10:24;;;;;;;2.42;2.33;;;15.90;99.90;;;16.33;74.86;102873.94;4954156;29;20132;-73
2021/09/22 01:12:53;;;;;;;2.80;2.70;;;15.90;99.90;;;16.31;75.42;102871.28;4955338;29;20043;-73
2021/09/22 01:15:33;;;;;;;3.00;2.90;;;15.90;99.90;;;16.32;75.56;102878.38;4955031;29;20413;-73
2021/09/22 01:18:01;;;;;;;2.73;2.63;;;15.90;99.90;;;16.24;75.31;102848.97;4955402;29;20055;-73
2021/09/22 01:20:32;;;;;;;2.80;2.70;;;15.90;99.90;;;16.44;74.93;102865.06;4954017;29;20078;-73
2021/09/22 01:23:08;;;;;;;2.45;2.35;;;16.00;99.90;;;16.49;74.87;102867.81;4955048;29;20477;-73
2021/09/22 01:25:42;;;;;;;2.55;2.45;;;16.10;99.90;;;16.55;75.02;102865.16;4938355;29;20125;-73
2021/09/22 01:28:14;;;;;;;2.80;2.70;;;16.10;99.90;;;16.56;75.16;102861.59;4938022;29;20111;-74
2021/09/22 01:30:46;;;;;;;3.17;3.08;;;16.20;99.90;;;16.62;75.13;102853.59;4954013;29;20054;-73
2021/09/22 01:33:17;;;;;;;5.18;4.88;;;16.20;99.90;;;16.74;74.87;102857.16;4953956;29;20058;-74
2021/09/22 01:36:07;;;;;;;3.40;3.30;;;16.40;99.90;;;16.83;74.88;102861.66;4954704;29;20055;-73
2021/09/22 01:38:38;;;;;;;3.10;3.00;;;16.50;99.90;;;16.92;74.90;102864.31;4953873;29;20489;-74
2021/09/22 01:41:15;;;;;;;3.67;3.47;;;16.50;99.90;;;16.81;74.78;102848.28;4937899;29;20081;-73
2021/09/22 01:43:58;;;;;;;2.67;2.58;;;16.60;99.90;;;16.98;74.56;102865.25;4953888;28;20047;-73
2021/09/22 01:46:55;;;;;;;2.42;2.33;;;16.70;99.90;;;16.99;73.41;102867.00;4941757;29;20055;-74
2021/09/22 01:49:37;;;;;;;2.50;2.40;;;16.70;99.90;;;16.92;72.94;102883.94;4957686;29;20390;-74
2021/09/22 01:52:11;;;;;;;3.03;2.92;;;16.60;99.90;;;16.87;72.36;102864.34;4941776;29;20047;-73
2021/09/22 01:54:50;;;;;;;2.78;2.67;;;16.60;99.90;;;16.80;72.38;102867.88;4957619;29;20055;-73
2021/09/22 01:57:20;;;;;;;2.95;2.85;;;16.50;99.90;;;16.74;72.64;102867.84;4941653;29;20401;-73
2021/09/22 01:59:50;;;;;;;2.80;2.70;;;16.50;99.90;;;16.71;72.52;102862.50;4941231;29;20086;-73
2021/09/22 02:02:26;;;;;;;2.53;2.42;;;16.40;99.90;;;16.65;72.18;102867.84;4941544;29;20058;-73
2021/09/22 02:05:18;;;;;;;2.60;2.50;;;16.40;99.90;;;16.63;73.06;102866.94;4955278;29;20063;-73
2021/09/22 02:07:55;;;;;;;2.50;2.40;;;16.40;99.90;;;16.69;73.96;102863.38;4941354;29;20055;-74
2021/09/22 02:10:28;;;;;;;2.50;2.40;;;16.40;99.90;;;16.68;74.57;102841.16;4957332;29;20433;-74
2021/09/22 02:12:57;;;;;;;2.53;2.42;;;16.40;99.90;;;16.85;74.83;102855.44;4958628;29;20074;-74
2021/09/22 02:15:26;;;;;;;2.72;2.63;;;16.50;99.90;;;16.93;74.72;102850.09;4957073;29;20051;-74
2021/09/22 02:18:14;;;;;;;2.50;2.40;;;16.60;99.90;;;16.94;74.41;102849.19;4958364;29;20062;-73
2021/09/22 02:20:43;;;;;;;2.67;2.58;;;16.60;99.90;;;16.86;74.11;102841.16;4941158;29;20106;-74
2021/09/22 02:23:25;;;;;;;4.35;4.05;;;16.60;99.90;;;16.83;73.65;102846.50;4941217;29;20051;-73
2021/09/22 02:26:00;;;;;;;2.58;2.47;;;16.60;99.90;;;16.72;72.75;102852.72;4941175;29;20501;-73
2021/09/22 02:28:29;;;;;;;2.67;2.58;;;16.50;99.90;;;16.54;71.91;102848.22;4957131;29;20102;-74
2021/09/22 02:30:58;;;;;;;2.80;2.70;;;16.30;99.90;;;16.54;72.57;102842.88;4940980;29;20082;-73
2021/09/22 02:33:29;;;;;;;2.70;2.60;;;16.20;99.90;;;16.56;73.03;102835.75;4956948;29;20047;-74
2021/09/22 02:35:59;;;;;;;2.67;2.58;;;16.20;99.90;;;16.43;73.10;102820.56;4957850;29;20086;-74
2021/09/22 02:38:39;;;;;;;2.65;2.55;;;16.20;99.90;;;16.48;73.23;102836.59;4940894;29;20408;-74
2021/09/22 02:41:09;;;;;;;2.45;2.35;;;16.20;99.90;;;16.47;73.03;102838.38;4940526;29;20075;-74
2021/09/22 02:43:38;;;;;;;2.67;2.58;;;16.20;99.90;;;16.41;73.19;102841.03;4958067;29;20390;-73
2021/09/22 02:46:06;;;;;;;3.00;2.90;;;16.10;99.90;;;16.35;74.00;102816.06;4958105;29;20047;-74
2021/09/22 02:48:53;;;;;;;3.13;3.03;;;16.20;99.90;;;16.55;74.60;102833.09;4956718;29;20053;-73
2021/09/22 02:51:22;;;;;;;2.90;2.80;;;16.20;99.90;;;16.54;74.21;102840.22;4940644;29;20070;-74
2021/09/22 02:53:50;;;;;;;3.00;2.90;;;16.20;99.90;;;16.53;74.18;102846.41;4957818;29;20047;-73
2021/09/22 02:56:21;;;;;;;3.10;3.00;;;16.30;99.90;;;16.49;74.00;102833.06;4940021;29;20567;-74
2021/09/22 02:58:50;;;;;;;;;;;16.20;99.90;;;16.48;74.00;102831.25;4956983;29;20055;-73
2021/09/22 03:01:19;;;;;;;2.53;2.42;;;16.20;99.90;;;16.54;73.92;102837.53;4956432;29;19930;-73
2021/09/22 03:03:48;;;;;;;3.05;2.95;;;16.20;99.90;;;16.53;72.99;102830.41;4956364;29;20047;-73
2021/09/22 03:06:17;;;;;;;2.85;2.75;;;16.20;99.90;;;16.38;72.49;102832.09;4957358;29;20579;-74
2021/09/22 03:08:45;;;;;;;132.02;11.52;;;16.10;99.90;;;16.20;72.29;102825.81;4957579;29;20046;-73
2021/09/22 03:11:14;;;;;;;2.97;2.88;;;16.00;99.90;;;15.30;72.75;102660.81;4940324;29;20386;-74
2021/09/22 03:13:44;;;;;;;2.58;2.47;;;15.90;99.90;;;16.25;73.25;102813.38;4940220;29;20058;-73
2021/09/22 03:16:12;;;;;;;2.53;2.42;;;15.90;99.90;;;16.23;73.36;102814.25;4955943;29;20047;-73
2021/09/22 03:18:41;;;;;;;2.65;2.55;;;15.90;99.90;;;16.19;73.92;102808.00;4956176;29;20043;-73
2021/09/22 03:21:12;;;;;;;2.63;2.53;;;15.90;99.90;;;16.30;74.17;102805.34;4940130;29;20051;-73
2021/09/22 03:23:41;;;;;;;2.42;2.33;;;16.00;99.90;;;16.34;74.40;102809.81;4940000;29;20070;-73
2021/09/22 03:26:10;;;;;;;2.70;2.60;;;16.00;99.90;;;16.34;74.24;102812.50;4939893;29;20047;-73
2021/09/22 03:28:40;;;;;;;;;;;16.00;99.90;;;16.35;74.30;102808.97;4956191;29;20055;-73
2021/09/22 03:31:10;;;;;;;2.83;2.72;;;16.10;99.90;;;16.37;74.53;102806.28;4957075;29;19954;-73
2021/09/22 03:33:39;;;;;;;2.95;2.85;;;16.10;99.90;;;16.41;74.81;102802.72;4955904;29;20047;-74
2021/09/22 03:36:09;;;;;;;3.30;3.20;;;16.10;99.90;;;16.47;74.96;102797.41;4939434;29;20054;-74
2021/09/22 03:38:37;;;;;;;2.40;2.30;;;16.20;99.90;;;16.36;74.81;102777.78;4955774;29;20061;-74
2021/09/22 03:41:06;;;;;;;2.70;2.60;;;16.20;99.90;;;16.47;74.69;102797.41;4939690;29;20053;-73
2021/09/22 03:43:34;;;;;;;2.55;2.45;;;16.20;99.90;;;16.42;74.42;102784.03;4939633;29;20129;-73
2021/09/22 03:46:05;;;;;;;2.50;2.40;;;16.20;99.90;;;16.40;73.63;102795.59;4955524;29;20047;-73
2021/09/22 03:48:35;;;;;;;2.67;2.58;;;16.20;99.90;;;16.43;73.71;102791.19;4955709;29;20504;-73
2021/09/22 03:51:03;;;;;;;2.70;2.60;;;16.10;99.90;;;16.45;73.72;102794.75;4939559;29;20058;-73
2021/09/22 03:53:36;;;;;;;3.20;3.10;;;16.10;99.90;;;16.39;74.28;102801.84;4955498;29;20303;-73
2021/09/22 03:56:05;;;;;;;2.50;2.40;;;16.10;99.90;;;16.42;74.39;102800.06;4956631;29;20043;-73
2021/09/22 03:58:34;;;;;;;2.75;2.65;;;16.10;99.90;;;16.40;74.53;102791.16;4956639;29;20121;-73
2021/09/22 04:01:02;;;;;;;2.90;2.80;;;16.10;99.90;;;16.46;74.52;102801.84;4955352;29;20405;-73
2021/09/22 04:03:32;;;;;;;2.60;2.50;;;16.10;99.90;;;16.47;74.45;102806.31;4939292;29;20054;-74
2021/09/22 04:06:02;;;;;;;2.88;2.78;;;16.20;99.90;;;16.52;74.39;102801.91;4956431;29;20048;-73
2021/09/22 04:08:31;;;;;;;2.65;2.55;;;16.20;99.90;;;16.51;74.10;102786.75;4938524;29;20055;-73
2021/09/22 04:10:59;;;;;;;2.53;2.42;;;16.20;99.90;;;16.59;74.08;102806.38;4956431;29;20038;-72
2021/09/22 04:13:28;;;;;;;2.97;2.88;;;16.30;99.90;;;16.44;74.02;102776.91;4955120;29;20408;-73
2021/09/22 04:15:56;;;;;;;3.47;3.30;;;16.20;99.90;;;16.50;74.04;102787.66;4938715;29;20394;-73
2021/09/22 04:18:26;;;;;;;3.00;2.90;;;16.20;99.90;;;16.56;73.91;102797.44;4954769;29;20083;-78
2021/09/22 04:20:55;;;;;;;2.88;2.78;;;16.30;99.90;;;16.39;73.62;102761.78;4955925;29;20125;-75
2021/09/22 04:23:26;;;;;;;2.60;2.50;;;16.20;99.90;;;16.59;73.30;102798.34;4955799;29;20047;-77
2021/09/22 04:25:55;;;;;;;3.03;2.92;;;16.30;99.90;;;16.63;73.09;102799.25;4954940;29;20513;-72
2021/09/22 04:28:23;;;;;;;2.70;2.60;;;16.30;99.90;;;16.66;72.96;102797.50;4938579;29;20043;-74
2021/09/22 04:31:11;;;;;;;3.65;3.47;;;16.30;99.90;;;16.64;72.83;102803.72;4956103;29;20066;-74
2021/09/22 04:34:09;;;;;;;2.72;2.63;;;16.30;99.90;;;16.64;72.61;102822.41;4920095;29;20089;-74
2021/09/22 04:36:56;;;;;;;3.85;3.58;;;16.30;99.90;;;16.64;72.45;102801.03;4955851;29;20066;-74
2021/09/22 04:39:45;;;;;;;3.03;2.92;;;16.30;99.90;;;16.56;72.45;102798.34;4956011;29;20141;-74
2021/09/22 04:42:40;;;;;;;3.05;2.95;;;16.30;99.90;;;16.56;72.33;102798.34;4947220;29;20474;-74
2021/09/22 04:45:27;;;;;;;2.83;2.72;;;16.30;99.90;;;16.60;72.22;102812.59;4955481;29;20060;-74
2021/09/22 04:48:15;;;;;;;3.03;2.92;;;16.30;99.90;;;16.54;72.32;102805.47;4955820;29;20061;-74
2021/09/22 04:51:02;;;;;;;3.28;3.17;;;16.20;99.90;;;16.54;72.44;102805.47;4955552;29;20054;-74
2021/09/22 04:53:49;;;;;;;3.13;3.03;;;16.20;99.90;;;16.58;72.42;102811.72;4955652;29;20594;-74
2021/09/22 04:56:48;;;;;;;3.20;3.10;;;16.20;99.90;;;16.51;72.06;102801.91;4919523;29;20139;-73
2021/09/22 04:59:35;;;;;;;2.90;2.80;;;16.20;99.90;;;16.57;72.03;102809.94;4955367;29;20066;-74
2021/09/22 05:02:22;;;;;;;2.85;2.75;;;16.30;99.90;;;16.57;72.19;102813.47;4955644;29;20421;-74
2021/09/22 05:05:10;;;;;;;2.80;2.70;;;16.30;99.90;;;16.56;72.34;102819.72;4955408;29;20050;-74
2021/09/22 05:08:11;;;;;;;2.83;2.72;;;16.30;99.90;;;16.53;72.23;102817.03;4922793;29;20059;-74
2021/09/22 05:10:58;;;;;;;2.75;2.65;;;16.20;99.90;;;16.56;72.21;102825.06;4955252;29;20091;-74
2021/09/22 05:13:46;;;;;;;2.90;2.80;;;16.20;99.90;;;16.52;72.31;102825.06;4955209;29;20058;-74
2021/09/22 05:16:33;;;;;;;2.78;2.67;;;16.20;99.90;;;16.54;72.56;102828.63;4954866;29;20159;-75
2021/09/22 05:19:20;;;;;;;3.00;2.90;;;16.20;99.90;;;16.52;72.62;102819.72;4955174;28;20054;-74
2021/09/22 05:22:08;;;;;;;3.30;3.05;;;16.20;99.90;;;16.54;72.66;102813.50;4955040;29;20057;-74
2021/09/22 05:24:54;;;;;;;3.13;3.03;;;16.20;99.90;;;16.58;72.32;102822.41;4955095;29;20617;-74
2021/09/22 05:27:43;;;;;;;4.68;4.32;;;16.20;99.90;;;16.61;72.28;102807.25;4955058;29;20192;-75
2021/09/22 05:30:32;;;;;;;3.55;3.35;;;16.20;99.90;;;16.63;72.33;102816.16;4955022;29;20058;-75
2021/09/22 05:33:19;;;;;;;3.85;3.65;;;16.20;99.90;;;16.60;72.15;102805.50;4954938;29;20054;-74
2021/09/22 05:36:07;;;;;;;3.80;3.60;;;16.30;99.90;;;16.55;72.33;102799.22;4955068;29;20563;-74
2021/09/22 05:38:53;;;;;;;4.00;3.83;;;16.30;99.90;;;16.58;72.19;102801.03;4954662;29;20500;-74
2021/09/22 05:41:40;;;;;;;3.17;3.08;;;16.30;99.90;;;16.63;72.20;102810.81;4955099;29;20522;-74
2021/09/22 05:44:27;;;;;;;2.65;2.55;;;16.30;99.90;;;16.61;72.09;102807.25;4954792;29;20050;-74
2021/09/22 05:47:32;;;;;;;3.20;3.10;;;16.30;99.90;;;16.59;72.22;102817.06;4933429;29;20051;-74
2021/09/22 05:50:19;;;;;;;2.95;2.85;;;16.30;99.90;;;16.58;72.32;102817.06;4953171;29;20526;-74
2021/09/22 05:53:10;;;;;;;2.95;2.85;;;16.30;99.90;;;16.59;72.17;102822.41;4935794;29;20047;-74
2021/09/22 05:55:57;;;;;;;3.90;3.70;;;16.30;99.90;;;16.58;72.28;102820.63;4954720;29;20073;-74
2021/09/22 05:58:46;;;;;;;3.25;3.15;;;16.30;99.90;;;16.58;72.23;102820.63;4933989;29;20051;-74
2021/09/22 06:01:33;;;;;;;2.53;2.42;;;16.30;99.90;;;16.58;72.19;102822.41;4954524;29;20055;-74
2021/09/22 06:04:22;;;;;;;2.70;2.60;;;16.30;99.90;;;16.58;72.27;102815.28;4954874;29;20054;-75
2021/09/22 06:07:09;;;;;;;2.70;2.60;;;16.30;99.90;;;16.59;72.36;102825.06;4954660;29;20138;-74
2021/09/22 06:09:56;;;;;;;2.97;2.88;;;16.30;99.90;;;16.59;72.45;102827.75;4954605;29;20117;-74
2021/09/22 06:12:43;;;;;;;2.83;2.72;;;16.30;99.90;;;16.59;72.46;102825.06;4937423;29;20051;-74
2021/09/22 06:15:12;;;;;;;2.65;2.55;;;16.30;99.90;;;16.61;72.73;102817.03;4953390;29;20401;-74
2021/09/22 06:17:40;;;;;;;2.75;2.65;;;16.30;99.90;;;16.61;72.75;102812.59;4954318;29;20051;-74
2021/09/22 06:20:13;;;;;;;2.92;2.83;;;16.30;99.90;;;16.67;72.51;102812.63;4937433;29;20128;-74
2021/09/22 06:22:41;;;;;;;2.97;2.88;;;16.40;99.90;;;16.81;71.90;102821.56;4954534;29;20032;-74
2021/09/22 06:25:12;;;;;;;2.80;2.70;;;16.40;99.90;;;16.90;71.61;102815.31;4937418;29;20485;-74
2021/09/22 06:27:41;;;;;;;2.83;2.72;;;16.50;99.90;;;16.90;71.39;102805.50;4954649;29;20039;-74
2021/09/22 06:30:11;;;;;;;3.25;3.15;;;16.60;99.90;;;17.02;70.91;102815.31;4954546;28;20039;-75
2021/09/22 06:32:42;;;;;;;6.80;5.43;;;16.70;99.90;;;17.10;70.33;102825.13;4956875;29;20513;-75
2021/09/22 06:35:27;;;;;;;2.42;2.33;;;16.80;99.90;;;17.24;69.92;102818.88;4958030;29;20054;-75
2021/09/22 06:38:00;;;;;;;3.08;2.97;;;16.90;99.90;;;17.37;69.34;102815.31;4940534;29;20048;-74
2021/09/22 06:40:34;;;;;;;2.85;2.75;;;17.00;99.90;;;17.51;68.87;102816.22;4940567;29;20047;-73
2021/09/22 06:43:04;;;;;;;2.63;2.53;;;17.10;99.90;;;17.68;68.33;102815.28;4956760;29;20073;-75
2021/09/22 06:45:34;;;;;;;2.63;2.53;;;17.40;99.90;;;17.82;67.84;102824.19;4957761;29;20478;-73
2021/09/22 06:48:02;;;;;;;2.40;2.30;;;17.50;99.90;;;17.92;67.30;102828.59;4957579;29;20082;-74
2021/09/22 06:50:33;;;;;;;2.40;2.30;;;17.60;99.90;;;18.09;66.77;102819.59;4957486;29;20047;-74
2021/09/22 06:53:02;;;;;;;2.85;2.75;;;17.80;99.90;;;18.19;66.75;102808.88;4957591;29;20043;-72
2021/09/22 06:55:30;;;;;;;3.60;3.40;;;17.90;99.90;;;18.42;66.16;102823.06;4957504;29;20485;-72
2021/09/22 06:57:58;;;;;;;2.60;2.50;;;18.10;99.90;;;18.52;65.82;102840.00;4956342;29;20453;-74
2021/09/22 07:00:27;;;;;;;2.65;2.55;;;18.20;99.90;;;18.69;65.98;102825.59;4957400;29;20067;-70
2021/09/22 07:02:56;;;;;;;2.85;2.75;;;18.40;99.90;;;18.95;65.72;102833.41;4957717;29;20130;-75
2021/09/22 07:05:25;;;;;;;2.33;2.22;;;18.60;99.90;;;18.91;65.39;102837.94;4957680;29;20100;-84
2021/09/22 07:07:55;;;;;;;2.70;2.60;;;18.70;99.90;;;18.75;65.52;102790.69;4957584;29;20126;-75
2021/09/22 07:10:23;;;;;;;2.53;2.42;;;18.70;99.90;;;19.17;66.19;102824.31;4940295;29;20051;-75
2021/09/22 07:12:52;;;;;;;2.40;2.30;;;18.80;99.90;;;19.51;66.21;102843.75;4956215;29;20475;-78
2021/09/22 07:15:21;;;;;;;2.50;2.40;;;19.10;99.90;;;19.77;65.45;102849.72;4957326;29;20047;-71
2021/09/22 07:17:49;;;;;;;2.60;2.50;;;19.40;99.90;;;19.82;64.36;102834.47;4955875;29;20073;-79
2021/09/22 07:20:18;;;;;;;2.55;2.45;;;19.60;99.90;;;20.05;64.38;102853.91;4957528;29;20043;-74
2021/09/22 07:22:46;;;;;;;2.47;2.38;;;19.70;99.90;;;20.15;64.15;102855.53;4956974;29;20039;-75
2021/09/22 07:25:16;;;;;;;2.97;2.60;;;19.90;99.90;;;20.24;63.56;102844.72;4957042;29;20458;-76
2021/09/22 07:27:45;;;;;;;4.75;3.90;;;20.00;99.90;;;20.45;63.09;102854.28;4956983;29;20062;-71
2021/09/22 07:30:14;;;;;;;2.55;2.45;;;20.20;99.90;;;20.27;63.11;102793.59;4956821;29;20043;-75
2021/09/22 07:32:45;;;;;;;7.47;3.40;;;20.40;99.90;;;20.81;62.80;102848.38;4957138;29;20043;-75
2021/09/22 07:35:14;;;;;;;3.33;3.22;;;20.50;99.90;;;20.91;62.44;102852.72;4956688;29;20039;-75
2021/09/22 07:37:43;;;;;;;2.70;2.60;;;20.70;99.90;;;20.98;61.72;102842.75;4956572;29;20043;-75
2021/09/22 07:40:14;;;;;;;2.92;2.83;;;20.80;99.90;;;21.20;61.77;102844.22;4956910;29;20185;-75
2021/09/22 07:42:44;;;;;;;3.33;3.17;;;21.00;99.90;;;21.40;61.16;102844.75;4955500;28;20442;-75
2021/09/22 07:45:14;;;;;;;2.10;2.00;;;21.10;99.90;;;21.49;60.63;102848.19;4957256;29;20047;-75
2021/09/22 07:47:43;;;;;;;3.35;3.10;;;21.20;99.90;;;21.53;60.35;102832.84;4939451;29;20557;-76
2021/09/22 07:50:12;;;;;;;3.10;2.90;;;21.30;99.90;;;21.72;60.03;102836.97;4956504;29;20052;-75
2021/09/22 07:52:41;;;;;;;2.95;2.78;;;21.50;99.90;;;21.83;59.97;102824.25;4956541;29;20069;-66
2021/09/22 07:55:12;;;;;;;2.58;2.47;;;21.70;99.90;;;22.03;59.60;102831.91;4956426;29;20046;-67
2021/09/22 07:57:40;;;;;;;2.67;2.58;;;21.80;99.90;;;21.95;58.54;102785.38;4956711;29;20043;-67
2021/09/22 08:00:12;;;;;;;3.25;3.15;;;22.00;99.90;;;22.26;58.42;102841.28;4956232;29;20043;-67
2021/09/22 08:02:41;;;;;;;2.70;2.60;;;22.10;99.90;;;22.37;57.74;102843.78;4956373;29;20536;-67
2021/09/22 08:05:11;;;;;;;2.83;2.65;;;22.10;99.90;;;22.51;57.71;102841.66;4939280;29;20053;-67
2021/09/22 08:07:46;;;;;;;2.65;2.55;;;22.20;99.90;;;22.61;56.92;102845.09;4955331;29;20043;-67
2021/09/22 08:10:15;;;;;;;1.98;1.88;;;22.30;99.90;;;22.52;57.12;102815.56;4956242;29;20554;-67
2021/09/22 08:12:47;;;;;;;2.53;2.42;;;22.40;99.90;;;22.76;56.63;102842.03;4956049;29;20078;-67
2021/09/22 08:15:17;;;;;;;3.42;3.22;;;22.50;99.90;;;22.78;55.95;102840.19;4956017;29;20047;-67
2021/09/22 08:17:46;;;;;;;2.88;2.78;;;22.50;99.90;;;22.93;56.05;102845.22;4954858;29;20059;-67
2021/09/22 08:20:15;;;;;;;2.08;1.98;;;22.60;99.90;;;23.01;55.89;102844.09;4955941;29;20078;-67
2021/09/22 08:22:45;;;;;;;2.17;2.07;;;22.70;99.90;;;23.02;55.92;102829.66;4956333;29;20090;-68
2021/09/22 08:25:14;;;;;;;2.25;2.15;;;22.80;99.90;;;23.18;55.82;102841.88;4955660;29;20051;-67
2021/09/22 08:27:42;;;;;;;6.57;3.50;;;22.90;99.90;;;23.33;55.76;102846.00;4955603;29;20054;-75
2021/09/22 08:30:13;;;;;;;2.40;2.30;;;23.00;99.90;;;23.44;55.25;102843.91;4955712;29;20501;-68
2021/09/22 08:32:43;;;;;;;2.22;2.13;;;23.20;99.90;;;23.51;54.69;102839.25;4956052;29;20402;-68
2021/09/22 08:35:13;;;;;;;2.30;2.20;;;23.20;99.90;;;23.51;55.03;102833.84;4955611;29;20043;-66
2021/09/22 08:37:42;;;;;;;1.98;1.88;;;23.30;99.90;;;23.51;55.05;102836.53;4955671;29;20131;-64
2021/09/22 08:40:12;;;;;;;3.30;3.17;;;23.30;99.90;;;23.51;55.25;102836.53;4955478;29;20039;-66
2021/09/22 08:42:41;;;;;;;2.35;2.25;;;23.20;99.90;;;23.62;54.38;102843.44;4955522;29;20106;-67
2021/09/22 08:45:12;;;;;;;3.30;3.10;;;23.30;99.90;;;23.77;54.26;102843.00;4954279;29;20076;-71
2021/09/22 08:47:46;;;;;;;3.25;3.15;;;23.50;99.90;;;23.90;53.59;102849.88;4954523;29;20047;-68
2021/09/22 08:50:20;;;;;;;5.57;2.85;;;23.60;99.90;;;23.82;53.96;102846.50;4955328;29;20424;-67
2021/09/22 08:52:55;;;;;;;2.30;2.20;;;23.60;99.90;;;23.88;54.12;102853.53;4955272;28;20086;-67
2021/09/22 08:55:24;;;;;;;2.78;2.53;;;23.60;99.90;;;23.87;54.05;102851.75;4955700;29;20051;-67
2021/09/22 08:57:52;;;;;;;2.50;2.33;;;23.60;99.90;;;23.93;54.07;102855.19;4955569;29;20097;-68
2021/09/22 09:00:21;;;;;;;2.30;2.20;;;23.60;99.90;;;24.03;54.08;102856.75;4938151;29;20134;-67
2021/09/22 09:02:50;;;;;;;2.50;2.40;;;23.70;99.90;;;24.10;53.47;102862.84;4955140;29;20047;-67
2021/09/22 09:05:22;;;;;;;2.42;2.33;;;23.80;99.90;;;24.07;53.37;102834.09;4955434;29;20053;-67
2021/09/22 09:07:54;;;;;;;3.15;2.75;;;23.90;99.90;;;24.28;53.76;102859.59;4955107;29;20047;-67
2021/09/22 09:10:27;;;;;;;3.05;2.85;;;23.90;99.90;;;24.23;53.71;102837.22;4955220;29;20051;-67
2021/09/22 09:13:04;;;;;;;2.30;2.20;;;24.10;99.90;;;24.43;53.35;102858.28;4955147;29;20047;-67
2021/09/22 09:15:37;;;;;;;3.88;3.15;;;24.10;99.90;;;24.51;53.18;102857.09;4955007;29;20047;-68
2021/09/22 09:18:15;;;;;;;1.67;1.67;;;24.20;99.90;;;24.57;52.81;102864.13;4955245;29;20374;-67
2021/09/22 09:20:48;;;;;;;2.00;1.90;;;24.30;99.90;;;24.63;52.59;102870.25;4954810;29;20493;-67
2021/09/22 09:23:19;;;;;;;2.28;2.17;;;24.30;99.90;;;24.66;53.01;102864.75;4955171;29;20051;-66
2021/09/22 09:25:59;;;;;;;2.67;2.55;;;24.40;99.90;;;24.75;52.59;102856.38;4955340;29;20068;-68
2021/09/22 09:28:31;;;;;;;2.00;1.90;;;24.40;99.90;;;24.79;52.11;102862.59;4953894;29;20044;-66
2021/09/22 09:31:02;;;;;;;1.80;1.77;;;24.50;99.90;;;24.92;52.73;102858.53;4953797;29;20186;-68
2021/09/22 09:33:37;;;;;;;2.10;2.00;;;24.60;99.90;;;24.83;52.53;102839.91;4954783;29;20047;-67
2021/09/22 09:36:42;;;;;;;2.45;2.35;;;24.60;99.90;;;25.02;52.43;102851.91;4953853;29;20086;-67
2021/09/22 09:39:19;;;;;;;3.40;3.20;;;24.70;99.90;;;25.15;52.19;102842.41;4954558;29;20462;-68
2021/09/22 09:41:51;;;;;;;3.05;2.88;;;24.80;99.90;;;25.14;51.61;102837.97;4954864;29;20098;-67
2021/09/22 09:44:24;;;;;;;2.10;2.00;;;24.80;99.90;;;25.11;51.08;102838.03;4954856;29;20405;-69
2021/09/22 09:46:54;;;;;;;2.38;2.28;;;24.80;99.90;;;24.98;51.32;102840.28;4954510;29;20036;-68
2021/09/22 09:49:29;;;;;;;1.77;1.77;;;24.70;99.90;;;24.98;51.40;102831.25;4954777;29;20058;-69
2021/09/22 09:52:00;;;;;;;7.40;2.70;;;24.60;99.90;;;25.18;51.96;102828.78;4937677;29;20051;-70
2021/09/22 09:54:32;;;;;;;1.75;1.75;;;24.80;99.90;;;25.27;51.16;102828.47;4954774;29;20122;-68
2021/09/22 09:57:12;;;;;;;2.03;1.92;;;24.90;99.90;;;25.13;51.18;102841.59;4954483;29;20047;-67
2021/09/22 09:59:45;;;;;;;2.28;2.17;;;24.80;99.90;;;25.15;51.62;102833.41;4953652;29;20051;-70
2021/09/22 10:02:25;;;;;;;3.00;2.60;;;24.90;99.90;;;25.10;51.73;102819.13;4954928;29;20417;-67
2021/09/22 10:04:56;;;;;;;2.55;2.42;;;24.80;99.90;;;25.20;51.20;102835.03;4954889;28;20049;-67
2021/09/22 10:07:25;;;;;;;1.98;1.88;;;24.80;99.90;;;25.25;51.34;102837.56;4958756;29;20047;-68
2021/09/22 10:09:54;;;;;;;1.75;1.75;;;24.80;99.90;;;25.14;51.01;102837.97;4958230;29;20039;-68
2021/09/22 10:12:26;;;;;;;2.33;2.13;;;24.80;99.90;;;25.12;51.42;102839.81;4958230;29;20508;-69
2021/09/22 10:14:54;;;;;;;4.25;3.90;;;24.80;99.90;;;25.30;51.60;102850.03;4958330;29;20047;-70
2021/09/22 10:17:28;;;;;;;2.28;2.17;;;24.90;99.90;;;25.00;50.63;102773.41;4958175;29;20405;-67
2021/09/22 10:19:59;;;;;;;2.70;2.60;;;25.00;99.90;;;25.12;50.47;102747.72;4958053;29;20544;-68
2021/09/22 10:22:28;;;;;;;2.63;2.53;;;25.20;99.90;;;25.77;49.77;102838.44;4958300;29;20453;-68
2021/09/22 10:24:56;;;;;;;1.75;1.75;;;25.40;99.90;;;25.85;49.86;102833.63;4957972;29;20485;-68
2021/09/22 10:27:25;;;;;;;2.55;2.45;;;25.50;99.90;;;25.99;49.17;102835.84;4957958;29;20043;-68
2021/09/22 10:29:59;;;;;;;3.65;3.38;;;25.60;99.90;;;25.97;49.26;102821.44;4957945;29;20122;-68
2021/09/22 10:32:37;;;;;;;1.63;1.63;;;25.70;99.90;;;26.16;49.21;102827.09;4958084;29;20079;-68
2021/09/22 10:35:37;;;;;;;1.70;1.70;;;25.80;99.90;;;26.48;48.27;102833.03;4958223;29;20048;-68
2021/09/22 10:38:47;;;;;;;18.83;3.90;;;26.10;99.90;;;26.26;49.52;102833.94;4958058;29;20070;-68
2021/09/22 10:41:37;;;;;;;3.22;3.03;;;26.10;99.90;;;25.79;48.13;102719.94;4942319;29;20059;-67